Time;durP1;ratioP1;P1;durP2;ratioP2;P2;SDS_P1;SDS_P2;PMS_P1;PMS_P2;Temp;Humidity;BMP_temperature;BMP_pressure;BME280_temperature;BME280_humidity;BME280_pressure;Samples;Min_cycle;Max_cycle;Signal;HPM_P1;HPM_P2
2021/01/31 00:00:39;;;;;;;59.70;31.83;;;-0.30;75.40;;;;;;4939267;28;87084;-72
2021/01/31 00:03:11;;;;;;;60.57;32.43;;;-0.40;75.60;;;;;;4940475;28;87281;-72
2021/01/31 00:05:37;;;;;;;65.37;34.93;;;-0.50;75.70;;;;;;4939691;28;87667;-72
2021/01/31 00:08:07;;;;;;;70.80;36.33;;;-0.50;76.00;;;;;;4938329;28;91258;-72
2021/01/31 00:10:33;;;;;;;68.03;35.60;;;-0.50;75.90;;;;;;4955564;28;86998;-72
2021/01/31 00:13:00;;;;;;;63.77;34.20;;;-0.60;75.80;;;;;;4938833;28;87691;-72
2021/01/31 00:15:31;;;;;;;67.70;35.23;;;-0.70;75.80;;;;;;4939006;28;91411;-72
2021/01/31 00:17:58;;;;;;;61.78;34.92;;;-0.70;75.60;;;;;;4957493;28;89947;-72
2021/01/31 00:20:29;;;;;;;71.93;38.70;;;-0.70;75.70;;;;;;4941953;28;87982;-72
2021/01/31 00:22:55;;;;;;;69.10;34.90;;;-0.70;75.50;;;;;;4943053;28;87123;-72
2021/01/31 00:25:21;;;;;;;62.50;35.60;;;-0.70;75.40;;;;;;4958322;28;90422;-72
2021/01/31 00:27:47;;;;;;;61.90;34.83;;;-0.70;75.20;;;;;;4941638;28;91039;-72
2021/01/31 00:30:20;;;;;;;68.37;34.00;;;-0.70;74.90;;;;;;4942612;28;86929;-71
2021/01/31 00:32:47;;;;;;;63.20;35.00;;;-0.80;74.40;;;;;;4958238;28;87958;-71
2021/01/31 00:35:16;;;;;;;65.40;34.23;;;-0.80;74.40;;;;;;4943422;28;87976;-72
2021/01/31 00:37:41;;;;;;;68.57;34.63;;;-0.80;74.20;;;;;;4943707;28;88249;-72
2021/01/31 00:40:09;;;;;;;80.37;40.57;;;-0.80;73.90;;;;;;4957626;28;87062;-72
2021/01/31 00:42:35;;;;;;;83.27;43.00;;;-0.90;74.10;;;;;;4942428;28;86851;-72
2021/01/31 00:45:01;;;;;;;86.63;42.73;;;-0.90;74.30;;;;;;4940916;28;89078;-72
2021/01/31 00:47:27;;;;;;;85.60;41.20;;;-0.90;74.50;;;;;;4958166;28;91687;-71
2021/01/31 00:49:53;;;;;;;107.10;50.23;;;-1.00;74.60;;;;;;4957548;28;86946;-72
2021/01/31 00:52:22;;;;;;;154.37;78.13;;;-1.00;74.70;;;;;;4942005;28;87890;-72
2021/01/31 00:54:49;;;;;;;233.87;117.03;;;-1.10;75.00;;;;;;4957961;28;91187;-72
2021/01/31 00:57:17;;;;;;;227.80;115.03;;;-1.10;75.10;;;;;;4941173;28;88541;-71
2021/01/31 00:59:43;;;;;;;240.07;112.23;;;-1.10;75.30;;;;;;4957748;28;87424;-71
2021/01/31 01:02:16;;;;;;;220.17;106.73;;;-1.10;75.10;;;;;;4940755;28;88045;-72
2021/01/31 01:04:44;;;;;;;209.10;100.23;;;-1.00;74.80;;;;;;4941525;28;91215;-71
2021/01/31 01:07:11;;;;;;;183.63;82.63;;;-1.00;74.40;;;;;;4940522;28;88047;-72
2021/01/31 01:09:37;;;;;;;150.20;67.67;;;-1.00;74.10;;;;;;4957457;28;89396;-72
2021/01/31 01:12:04;;;;;;;142.47;64.43;;;-1.00;73.80;;;;;;4956629;28;87867;-72
2021/01/31 01:14:31;;;;;;;128.43;57.47;;;-1.00;73.80;;;;;;4943171;28;87103;-72
2021/01/31 01:17:01;;;;;;;136.00;56.00;;;-1.00;74.10;;;;;;4957174;28;88089;-72
2021/01/31 01:19:28;;;;;;;124.50;53.50;;;-1.10;74.00;;;;;;4943152;28;86731;-72
2021/01/31 01:21:54;;;;;;;119.57;50.50;;;-1.10;74.00;;;;;;4957029;28;87583;-72
2021/01/31 01:24:20;;;;;;;109.20;45.90;;;-1.10;73.80;;;;;;4942249;28;87556;-71
2021/01/31 01:26:46;;;;;;;102.53;44.03;;;-1.10;73.60;;;;;;4941695;28;88934;-72
2021/01/31 01:29:13;;;;;;;117.40;54.23;;;-1.20;73.50;;;;;;4939911;28;87038;-72
2021/01/31 01:31:38;;;;;;;150.33;61.77;;;-1.20;73.40;;;;;;4941372;28;87854;-72
2021/01/31 01:34:05;;;;;;;152.37;61.07;;;-1.30;73.60;;;;;;4941325;28;88629;-72
2021/01/31 01:36:32;;;;;;;150.47;58.07;;;-1.30;73.80;;;;;;4942604;28;88833;-72
2021/01/31 01:38:58;;;;;;;133.53;55.63;;;-1.40;73.80;;;;;;4956740;28;86796;-72
2021/01/31 01:41:24;;;;;;;143.63;56.00;;;-1.40;74.00;;;;;;4942824;28;87088;-72
2021/01/31 01:43:51;;;;;;;125.93;52.97;;;-1.40;73.90;;;;;;4942595;28;88727;-72
2021/01/31 01:46:17;;;;;;;128.30;54.37;;;-1.40;73.90;;;;;;4942132;28;88354;-71
2021/01/31 01:49:00;;;;;;;146.80;58.23;;;-1.40;73.30;;;;;;4957454;28;87099;-71
2021/01/31 01:51:48;;;;;;;185.13;68.20;;;-1.40;73.30;;;;;;4957867;28;87767;-71
2021/01/31 01:54:33;;;;;;;344.23;104.20;;;-1.50;73.40;;;;;;4941742;28;88126;-72
2021/01/31 01:57:03;;;;;;;168.37;58.33;;;-1.40;73.60;;;;;;4955889;28;90896;-71
2021/01/31 01:59:30;;;;;;;97.57;42.50;;;-1.50;73.60;;;;;;4942006;28;88310;-71
2021/01/31 02:02:18;;;;;;;76.87;37.27;;;-1.60;74.00;;;;;;4941206;28;87061;-71
2021/01/31 02:04:45;;;;;;;72.97;34.23;;;-1.60;73.90;;;;;;4957103;28;91186;-72
2021/01/31 02:07:11;;;;;;;78.87;35.70;;;-1.60;73.60;;;;;;4941468;28;88415;-70
2021/01/31 02:09:39;;;;;;;70.27;36.03;;;-1.60;73.70;;;;;;4941188;28;86817;-70
2021/01/31 02:12:06;;;;;;;74.27;35.23;;;-1.70;73.50;;;;;;4956208;28;87911;-70
2021/01/31 02:14:35;;;;;;;85.00;38.93;;;-1.70;73.30;;;;;;4940638;28;91438;-69
2021/01/31 02:17:09;;;;;;;74.57;36.60;;;-1.70;73.00;;;;;;4941546;28;87414;-70
2021/01/31 02:19:54;;;;;;;94.30;41.20;;;-1.60;72.70;;;;;;4940718;28;87283;-70
2021/01/31 02:22:57;;;;;;;91.53;39.00;;;-1.60;72.30;;;;;;4940235;28;88124;-70
2021/01/31 02:25:45;;;;;;;72.27;33.00;;;-1.60;72.10;;;;;;4955887;28;91883;-70
2021/01/31 02:28:35;;;;;;;68.07;33.80;;;-1.70;72.30;;;;;;4956123;28;88632;-69
2021/01/31 02:31:28;;;;;;;65.00;32.33;;;-1.80;72.50;;;;;;4939728;28;86965;-70
2021/01/31 02:34:21;;;;;;;72.70;33.00;;;-1.80;72.00;;;;;;4956790;28;87367;-69
2021/01/31 02:36:54;;;;;;;72.57;33.70;;;-1.80;71.50;;;;;;4940378;28;91629;-69
2021/01/31 02:39:45;;;;;;;68.57;34.23;;;-1.80;71.50;;;;;;4941039;28;88471;-70
2021/01/31 02:42:41;;;;;;;68.30;33.03;;;-1.80;71.30;;;;;;4939649;28;87396;-70
2021/01/31 02:45:21;;;;;;;77.53;33.93;;;-1.80;71.20;;;;;;4941137;28;86200;-70
2021/01/31 02:48:01;;;;;;;71.73;33.50;;;-1.90;71.40;;;;;;4943560;28;91299;-70
2021/01/31 02:50:31;;;;;;;66.93;32.67;;;-1.80;71.50;;;;;;4945554;28;87695;-71
2021/01/31 02:53:12;;;;;;;65.67;30.90;;;-1.90;71.00;;;;;;4942195;28;87787;-70
2021/01/31 02:55:45;;;;;;;66.20;30.23;;;-1.90;70.70;;;;;;4940645;28;87498;-70
2021/01/31 02:58:19;;;;;;;67.90;31.60;;;-2.00;71.10;;;;;;4955806;28;88308;-69
2021/01/31 03:01:21;;;;;;;72.67;31.60;;;-2.00;71.10;;;;;;4956566;28;88534;-69
2021/01/31 03:04:02;;;;;;;82.03;33.08;;;-2.00;71.30;;;;;;4892981;28;87104;-71
2021/01/31 03:06:32;;;;;;;74.77;35.00;;;-2.10;72.40;;;;;;4941745;28;86823;-71
2021/01/31 03:09:12;;;;;;;70.53;33.00;;;-2.10;73.00;;;;;;4939817;28;88170;-72
2021/01/31 03:11:52;;;;;;;77.47;35.87;;;-2.20;73.60;;;;;;4940211;28;91511;-72
2021/01/31 03:14:29;;;;;;;78.27;34.33;;;-2.10;73.80;;;;;;4955554;28;86917;-72
2021/01/31 03:17:03;;;;;;;79.67;34.43;;;-2.10;72.80;;;;;;4956345;28;87115;-72
2021/01/31 03:19:39;;;;;;;73.77;33.70;;;-2.00;71.80;;;;;;4939533;28;89697;-72
2021/01/31 03:22:11;;;;;;;70.10;32.70;;;-1.90;72.00;;;;;;4940471;28;88938;-72
2021/01/31 03:24:56;;;;;;;78.43;35.53;;;-1.90;72.00;;;;;;4955787;28;87272;-71
2021/01/31 03:27:32;;;;;;;77.23;36.80;;;-1.80;72.00;;;;;;4939499;28;87445;-71
2021/01/31 03:29:58;;;;;;;82.90;39.03;;;-1.80;72.40;;;;;;4941258;28;87659;-71
2021/01/31 03:32:34;;;;;;;80.40;37.03;;;-1.70;72.50;;;;;;4940657;28;87644;-72
2021/01/31 03:35:07;;;;;;;80.13;36.63;;;-1.70;72.30;;;;;;4940945;28;86808;-72
2021/01/31 03:37:55;;;;;;;91.80;42.73;;;-1.70;72.60;;;;;;4941677;28;86580;-72
2021/01/31 03:40:23;;;;;;;83.00;37.53;;;-1.70;72.90;;;;;;4954728;28;91361;-72
2021/01/31 03:42:49;;;;;;;76.13;35.67;;;-1.70;72.60;;;;;;4955473;28;91213;-72
2021/01/31 03:45:22;;;;;;;84.77;37.63;;;-1.70;73.30;;;;;;4938708;28;88355;-72
2021/01/31 03:48:14;;;;;;;108.60;43.93;;;-1.60;73.20;;;;;;4939913;28;86862;-72
2021/01/31 03:50:40;;;;;;;129.57;50.80;;;-1.60;73.30;;;;;;4940970;28;88137;-72
2021/01/31 03:53:08;;;;;;;116.10;49.77;;;-1.60;73.50;;;;;;4943222;28;88435;-72
2021/01/31 03:55:34;;;;;;;92.77;39.50;;;-1.50;73.50;;;;;;4959286;28;87644;-71
2021/01/31 03:58:06;;;;;;;100.20;43.80;;;-1.50;73.60;;;;;;4944160;28;87005;-71
2021/01/31 04:00:37;;;;;;;;;;;-1.40;73.50;;;;;;4944395;28;88196;-72
2021/01/31 04:03:13;;;;;;;83.83;44.97;;;-1.40;73.50;;;;;;4944876;28;86796;-72
2021/01/31 04:05:54;;;;;;;78.90;41.33;;;-1.40;72.10;;;;;;4944648;28;87595;-72
2021/01/31 04:08:20;;;;;;;75.73;37.40;;;-1.40;71.10;;;;;;4942030;28;87815;-72
2021/01/31 04:10:46;;;;;;;70.40;34.63;;;-1.50;70.70;;;;;;4942329;28;88605;-71
2021/01/31 04:13:13;;;;;;;74.33;35.47;;;-1.60;70.80;;;;;;4943214;28;87248;-72
2021/01/31 04:15:53;;;;;;;68.60;34.70;;;-1.50;71.10;;;;;;4944108;28;87355;-71
2021/01/31 04:18:21;;;;;;;75.53;36.07;;;-1.60;71.00;;;;;;4941724;28;87800;-72
2021/01/31 04:20:47;;;;;;;72.90;35.63;;;-1.60;70.10;;;;;;4943607;28;88084;-71
2021/01/31 04:23:14;;;;;;;72.87;34.37;;;-1.70;70.00;;;;;;4957541;28;88150;-71
2021/01/31 04:25:40;;;;;;;70.13;33.03;;;-1.70;69.50;;;;;;4942803;28;87513;-72
2021/01/31 04:28:13;;;;;;;73.57;33.53;;;-1.70;69.50;;;;;;4943603;28;86885;-72
2021/01/31 04:30:40;;;;;;;67.93;31.30;;;-1.80;69.30;;;;;;4941702;28;86892;-72
2021/01/31 04:33:06;;;;;;;60.00;30.53;;;-1.80;69.40;;;;;;4941820;28;87512;-71
2021/01/31 04:35:32;;;;;;;55.97;27.20;;;-1.80;69.50;;;;;;4941849;28;87820;-71
2021/01/31 04:37:59;;;;;;;52.50;23.67;;;-1.90;70.10;;;;;;4942483;28;87084;-71
2021/01/31 04:40:25;;;;;;;46.53;23.63;;;-1.90;70.50;;;;;;4957503;28;91110;-71
2021/01/31 04:42:51;;;;;;;45.87;23.63;;;-2.00;70.60;;;;;;4942063;28;89328;-71
2021/01/31 04:45:18;;;;;;;48.70;23.97;;;-2.00;70.50;;;;;;4957624;28;87356;-72
2021/01/31 04:47:44;;;;;;;50.37;22.27;;;-1.90;70.60;;;;;;4942409;28;87960;-72
2021/01/31 04:50:20;;;;;;;45.30;22.87;;;-1.90;70.70;;;;;;4941294;28;91220;-72
2021/01/31 04:53:20;;;;;;;50.70;23.73;;;-1.90;70.40;;;;;;4942413;28;91544;-72
2021/01/31 04:56:07;;;;;;;40.87;21.30;;;-1.90;70.40;;;;;;4958504;28;86960;-71
2021/01/31 04:58:49;;;;;;;42.87;20.97;;;-1.90;71.40;;;;;;4943703;28;86939;-72
2021/01/31 05:01:24;;;;;;;41.87;20.90;;;-2.00;71.00;;;;;;4941038;28;89182;-71
2021/01/31 05:04:01;;;;;;;42.40;21.33;;;-2.00;71.50;;;;;;4943418;28;88696;-72
2021/01/31 05:06:47;;;;;;;42.33;20.57;;;-2.00;71.80;;;;;;4941053;28;86884;-71
2021/01/31 05:09:19;;;;;;;43.73;21.60;;;-2.00;71.90;;;;;;4957293;28;87585;-72
2021/01/31 05:12:13;;;;;;;40.60;21.77;;;-1.90;72.00;;;;;;4943031;28;87524;-71
2021/01/31 05:15:08;;;;;;;42.70;20.97;;;-1.90;72.00;;;;;;4957960;28;90383;-72
2021/01/31 05:17:34;;;;;;;41.80;21.83;;;-1.80;72.00;;;;;;4943007;28;86848;-72
2021/01/31 05:20:04;;;;;;;38.60;21.03;;;-1.90;71.80;;;;;;4942187;28;86304;-71
2021/01/31 05:22:37;;;;;;;44.63;21.30;;;-1.90;71.70;;;;;;4941644;28;88221;-72
2021/01/31 05:25:05;;;;;;;39.87;20.40;;;-1.90;72.10;;;;;;4941536;28;88100;-72
2021/01/31 05:27:34;;;;;;;48.07;23.80;;;-1.90;72.40;;;;;;4940366;28;87909;-72
2021/01/31 05:30:00;;;;;;;51.57;26.60;;;-1.90;72.40;;;;;;4942942;28;87074;-71
2021/01/31 05:32:26;;;;;;;49.50;24.80;;;-1.90;72.60;;;;;;4941065;28;86809;-72
2021/01/31 05:34:57;;;;;;;48.70;23.60;;;-1.90;72.90;;;;;;4942833;28;88421;-72
2021/01/31 05:37:23;;;;;;;48.63;23.98;;;-1.90;73.40;;;;;;4942338;28;87735;-71
2021/01/31 05:39:55;;;;;;;50.00;24.10;;;-1.90;73.60;;;;;;4957830;28;87475;-72
2021/01/31 05:42:24;;;;;;;49.20;23.35;;;-1.80;73.50;;;;;;4940333;28;89981;-72
2021/01/31 05:45:08;;;;;;;51.53;22.30;;;-1.70;73.10;;;;;;4941470;28;90854;-72
2021/01/31 05:47:41;;;;;;;55.17;24.57;;;-1.70;73.00;;;;;;4942250;28;86897;-72
2021/01/31 05:50:43;;;;;;;42.33;21.27;;;-1.70;73.10;;;;;;4941271;28;87320;-72
2021/01/31 05:53:34;;;;;;;46.33;22.17;;;-1.70;73.40;;;;;;4940836;28;88236;-71
2021/01/31 05:56:38;;;;;;;46.37;22.80;;;-1.70;73.30;;;;;;4941031;28;92238;-72
2021/01/31 05:59:04;;;;;;;47.27;21.47;;;-1.70;73.50;;;;;;4915822;28;87628;-72
2021/01/31 06:01:30;;;;;;;47.77;22.87;;;-1.80;73.90;;;;;;4941633;28;87565;-72
2021/01/31 06:04:12;;;;;;;45.17;24.23;;;-1.70;74.00;;;;;;4957079;28;91080;-71
2021/01/31 06:06:41;;;;;;;55.17;24.70;;;-1.70;74.10;;;;;;4957358;28;88765;-72
2021/01/31 06:09:20;;;;;;;51.53;24.53;;;-1.70;74.00;;;;;;4941064;28;87463;-72
2021/01/31 06:11:48;;;;;;;55.47;27.20;;;-1.60;74.10;;;;;;4941134;28;86254;-72
2021/01/31 06:14:14;;;;;;;52.07;23.87;;;-1.60;73.70;;;;;;4956044;28;87280;-72
2021/01/31 06:16:42;;;;;;;49.70;23.13;;;-1.50;73.70;;;;;;4942234;28;88002;-72
2021/01/31 06:19:28;;;;;;;46.47;22.03;;;-1.50;73.80;;;;;;4941032;28;87846;-73
2021/01/31 06:21:54;;;;;;;40.83;21.47;;;-1.50;75.20;;;;;;4961474;28;87362;-73
2021/01/31 06:24:29;;;;;;;45.17;21.80;;;-1.40;74.50;;;;;;4943963;28;89334;-72
2021/01/31 06:26:57;;;;;;;43.43;22.43;;;-1.50;74.30;;;;;;4940888;28;88067;-72
2021/01/31 06:29:45;;;;;;;43.70;22.23;;;-1.50;74.30;;;;;;4956051;28;87165;-72
2021/01/31 06:32:14;;;;;;;45.87;22.87;;;-1.40;74.10;;;;;;4940618;28;87899;-72
2021/01/31 06:34:47;;;;;;;44.63;22.00;;;-1.40;74.20;;;;;;4956972;28;88268;-71
2021/01/31 06:37:34;;;;;;;42.80;21.13;;;-1.40;74.00;;;;;;4940496;28;91939;-72
2021/01/31 06:40:25;;;;;;;45.07;21.90;;;-1.40;74.30;;;;;;4941983;28;86716;-72
2021/01/31 06:42:50;;;;;;;37.57;20.23;;;-1.40;74.10;;;;;;4957024;28;87216;-72
2021/01/31 06:45:22;;;;;;;39.63;20.50;;;-1.30;74.00;;;;;;4939089;28;91861;-72
2021/01/31 06:48:03;;;;;;;41.08;20.38;;;-1.30;73.90;;;;;;4956414;28;92261;-72
2021/01/31 06:50:47;;;;;;;38.97;20.63;;;-1.30;74.00;;;;;;4955861;28;87397;-72
2021/01/31 06:53:44;;;;;;;43.57;23.10;;;-1.20;73.80;;;;;;4941671;28;87244;-72
2021/01/31 06:56:13;;;;;;;45.27;22.63;;;-1.20;73.80;;;;;;4940135;28;91100;-72
2021/01/31 06:59:03;;;;;;;45.53;22.67;;;-1.20;74.00;;;;;;4955592;28;91372;-71
2021/01/31 07:01:44;;;;;;;40.17;23.03;;;-1.20;74.00;;;;;;4938834;28;87338;-72
2021/01/31 07:04:55;;;;;;;46.17;26.03;;;-1.10;74.00;;;;;;4940533;28;87368;-72
2021/01/31 07:07:29;;;;;;;47.70;25.50;;;-1.10;73.80;;;;;;4883504;28;90923;-72
2021/01/31 07:10:16;;;;;;;48.47;26.83;;;-1.10;73.40;;;;;;4900365;28;91006;-72
2021/01/31 07:12:54;;;;;;;51.97;28.80;;;-1.10;73.30;;;;;;4928570;28;87891;-72
2021/01/31 07:15:21;;;;;;;48.90;27.37;;;-1.00;73.20;;;;;;4940702;28;86915;-72
2021/01/31 07:18:04;;;;;;;53.13;28.13;;;-0.90;73.00;;;;;;4956297;28;87964;-72
2021/01/31 07:20:34;;;;;;;54.30;28.83;;;-0.90;72.70;;;;;;4955267;28;91096;-72
2021/01/31 07:23:24;;;;;;;52.40;27.90;;;-0.80;72.40;;;;;;4941496;28;86708;-72
2021/01/31 07:26:32;;;;;;;52.93;28.23;;;-0.80;72.70;;;;;;4941469;28;86946;-72
2021/01/31 07:29:02;;;;;;;48.63;25.70;;;-0.70;72.50;;;;;;4903484;28;87731;-72
2021/01/31 07:31:36;;;;;;;54.50;28.57;;;-0.70;72.20;;;;;;4903145;28;86995;-72
2021/01/31 07:34:20;;;;;;;55.33;28.23;;;-0.60;71.90;;;;;;4903574;28;86933;-72
2021/01/31 07:37:03;;;;;;;63.67;32.20;;;-0.60;71.90;;;;;;4904040;28;86980;-72
2021/01/31 07:39:45;;;;;;;67.67;33.47;;;-0.60;72.10;;;;;;4902261;28;89097;-72
2021/01/31 07:42:13;;;;;;;61.22;32.25;;;-0.50;71.90;;;;;;4903567;28;91811;-72
2021/01/31 07:44:41;;;;;;;62.40;30.50;;;-0.50;72.00;;;;;;4902838;28;86921;-72
2021/01/31 07:47:07;;;;;;;56.40;32.33;;;-0.40;71.80;;;;;;4903142;28;87575;-72
2021/01/31 07:49:55;;;;;;;58.23;29.90;;;-0.40;71.40;;;;;;4902774;28;88292;-70
2021/01/31 07:52:23;;;;;;;58.23;28.87;;;-0.40;71.20;;;;;;4901975;28;91390;-70
2021/01/31 07:55:10;;;;;;;63.90;30.37;;;-0.50;71.20;;;;;;4903557;28;87181;-70
2021/01/31 07:57:40;;;;;;;62.20;34.43;;;-0.40;71.70;;;;;;4886857;28;88144;-70
2021/01/31 08:00:18;;;;;;;62.87;35.67;;;-0.40;71.60;;;;;;4929473;28;88576;-70
2021/01/31 08:02:58;;;;;;;72.47;37.70;;;-0.40;71.10;;;;;;4942213;28;91503;-70
2021/01/31 08:05:53;;;;;;;72.17;37.57;;;-0.40;71.10;;;;;;4943268;28;87821;-70
2021/01/31 08:08:38;;;;;;;72.37;37.67;;;-0.30;71.20;;;;;;4944006;28;87447;-70
2021/01/31 08:11:08;;;;;;;88.20;45.00;;;-0.30;70.80;;;;;;4959295;28;88174;-70
2021/01/31 08:13:38;;;;;;;75.50;40.87;;;-0.30;70.70;;;;;;4942296;28;87367;-70
2021/01/31 08:16:41;;;;;;;71.87;35.57;;;-0.40;71.20;;;;;;4959203;28;87028;-70
2021/01/31 08:19:10;;;;;;;64.90;33.80;;;-0.30;71.40;;;;;;4959049;28;87528;-70
2021/01/31 08:21:53;;;;;;;67.77;36.63;;;-0.30;71.50;;;;;;4941904;28;91498;-70
2021/01/31 08:24:56;;;;;;;73.53;36.60;;;-0.30;71.00;;;;;;4942733;28;87938;-70
2021/01/31 08:27:37;;;;;;;72.83;38.90;;;-0.20;71.10;;;;;;4944134;28;86951;-70
2021/01/31 08:30:32;;;;;;;73.17;38.87;;;-0.10;71.30;;;;;;4959052;28;87294;-70
2021/01/31 08:32:58;;;;;;;77.27;39.27;;;0.00;71.10;;;;;;4943394;28;88683;-70
2021/01/31 08:35:45;;;;;;;76.97;40.10;;;0.20;70.70;;;;;;4941680;28;91788;-70
2021/01/31 08:38:20;;;;;;;78.63;39.07;;;0.40;70.30;;;;;;4943520;28;87115;-70
2021/01/31 08:41:04;;;;;;;78.30;42.93;;;0.50;69.70;;;;;;4941208;28;87955;-70
2021/01/31 08:43:40;;;;;;;79.20;41.00;;;0.60;69.30;;;;;;4957506;28;91009;-70
2021/01/31 08:46:26;;;;;;;87.23;42.63;;;0.70;69.20;;;;;;4942348;28;87942;-70
2021/01/31 08:48:57;;;;;;;96.87;45.63;;;0.70;68.90;;;;;;4958450;28;87038;-70
2021/01/31 08:51:38;;;;;;;92.73;43.17;;;0.80;68.70;;;;;;4943812;28;86105;-70
2021/01/31 08:54:10;;;;;;;75.47;39.30;;;0.80;68.50;;;;;;4958116;28;91292;-70
2021/01/31 08:56:40;;;;;;;80.63;42.22;;;0.90;68.50;;;;;;4941157;28;87888;-71
2021/01/31 08:59:14;;;;;;;76.33;38.83;;;0.90;68.40;;;;;;4941794;28;87712;-70
2021/01/31 09:01:42;;;;;;;64.60;37.23;;;1.10;68.50;;;;;;4942814;28;86883;-70
2021/01/31 09:04:14;;;;;;;71.33;35.13;;;1.30;68.10;;;;;;4958148;28;91485;-70
2021/01/31 09:06:42;;;;;;;64.45;34.83;;;1.50;67.70;;;;;;4942386;28;87868;-70
2021/01/31 09:09:25;;;;;;;68.63;35.57;;;2.00;66.80;;;;;;4943339;28;86884;-70
2021/01/31 09:12:03;;;;;;;69.13;37.00;;;2.20;65.30;;;;;;4942324;28;86914;-70
2021/01/31 09:14:33;;;;;;;67.00;35.43;;;2.20;65.30;;;;;;4940997;28;91762;-70
2021/01/31 09:17:03;;;;;;;128.27;57.70;;;2.30;64.30;;;;;;4943656;28;88431;-70
2021/01/31 09:19:30;;;;;;;91.20;42.27;;;2.30;64.30;;;;;;4940855;28;86925;-70
2021/01/31 09:22:02;;;;;;;63.93;35.00;;;2.60;64.10;;;;;;4943106;28;87178;-70
2021/01/31 09:24:33;;;;;;;70.77;39.90;;;2.80;63.90;;;;;;4956324;28;91450;-71
2021/01/31 09:27:00;;;;;;;75.03;40.07;;;3.30;63.60;;;;;;4957927;28;92380;-70
2021/01/31 09:29:29;;;;;;;64.57;33.87;;;3.70;62.60;;;;;;4942794;28;87153;-70
2021/01/31 09:32:20;;;;;;;61.40;33.67;;;4.10;60.30;;;;;;4957434;28;87874;-70
2021/01/31 09:34:48;;;;;;;57.50;33.77;;;4.30;59.70;;;;;;4957201;28;88170;-70
2021/01/31 09:37:26;;;;;;;55.63;29.83;;;4.50;59.00;;;;;;4941356;28;91304;-71
2021/01/31 09:39:55;;;;;;;70.97;37.20;;;4.70;58.20;;;;;;4941250;28;86911;-70
2021/01/31 09:42:23;;;;;;;165.07;67.70;;;4.90;57.90;;;;;;4941885;28;86401;-70
2021/01/31 09:45:00;;;;;;;91.27;40.90;;;5.00;56.80;;;;;;4941760;28;88040;-71
2021/01/31 09:47:27;;;;;;;62.80;33.27;;;5.10;55.20;;;;;;4941200;28;91118;-70
2021/01/31 09:49:58;;;;;;;60.20;31.13;;;5.10;53.80;;;;;;4940750;28;87782;-70
2021/01/31 09:52:24;;;;;;;57.88;31.20;;;5.00;54.50;;;;;;4942896;28;87036;-71
2021/01/31 09:54:50;;;;;;;58.27;29.87;;;5.00;53.70;;;;;;4940590;28;88140;-70
2021/01/31 09:57:20;;;;;;;62.80;32.57;;;5.00;53.70;;;;;;4942486;28;87185;-70
2021/01/31 09:59:46;;;;;;;52.87;29.43;;;5.00;54.10;;;;;;4956432;28;87014;-70
2021/01/31 10:02:18;;;;;;;55.30;31.37;;;5.10;52.50;;;;;;4957470;28;87118;-71
2021/01/31 10:04:52;;;;;;;62.80;34.47;;;5.10;52.20;;;;;;4940393;28;87666;-70
2021/01/31 10:07:27;;;;;;;57.13;32.00;;;5.10;52.90;;;;;;4957537;28;90903;-70
2021/01/31 10:09:53;;;;;;;54.67;30.83;;;5.00;53.70;;;;;;4956753;28;86860;-71
2021/01/31 10:12:31;;;;;;;52.23;28.43;;;5.10;53.40;;;;;;4942323;28;87130;-71
2021/01/31 10:15:02;;;;;;;49.07;27.20;;;5.30;53.10;;;;;;4941252;28;89190;-71
2021/01/31 10:17:44;;;;;;;49.97;27.77;;;5.40;51.70;;;;;;4957011;28;92066;-71
2021/01/31 10:20:29;;;;;;;43.38;23.67;;;5.50;50.10;;;;;;4942299;28;86875;-71
2021/01/31 10:23:15;;;;;;;57.87;30.10;;;5.40;49.20;;;;;;4957091;28;87145;-71
2021/01/31 10:25:44;;;;;;;52.30;26.47;;;5.40;49.70;;;;;;4941274;28;88238;-71
2021/01/31 10:28:13;;;;;;;44.13;25.07;;;5.40;48.50;;;;;;4941750;28;88096;-71
2021/01/31 10:30:42;;;;;;;48.07;26.00;;;5.30;49.40;;;;;;4939879;28;86774;-71
2021/01/31 10:33:29;;;;;;;47.67;25.83;;;5.40;50.20;;;;;;4940718;28;87730;-71
2021/01/31 10:35:54;;;;;;;81.60;44.07;;;5.40;49.90;;;;;;4939735;28;87784;-71
2021/01/31 10:38:32;;;;;;;51.23;28.13;;;5.50;50.00;;;;;;4956713;28;87247;-71
2021/01/31 10:41:00;;;;;;;52.10;28.83;;;5.50;49.30;;;;;;4939909;28;87719;-71
2021/01/31 10:43:27;;;;;;;39.70;23.50;;;5.50;49.50;;;;;;4941769;28;87267;-71
2021/01/31 10:45:53;;;;;;;41.43;23.07;;;5.40;49.00;;;;;;4939375;28;89810;-71
2021/01/31 10:48:19;;;;;;;45.50;25.17;;;5.40;49.70;;;;;;4956458;28;91193;-71
2021/01/31 10:50:45;;;;;;;44.87;23.33;;;5.50;50.60;;;;;;4939503;28;87011;-71
2021/01/31 10:53:11;;;;;;;40.67;22.30;;;5.50;49.60;;;;;;4940413;28;87123;-71
2021/01/31 10:55:37;;;;;;;36.77;20.47;;;5.50;49.60;;;;;;4940744;28;87660;-71
2021/01/31 10:58:02;;;;;;;35.20;18.30;;;5.50;49.00;;;;;;4940672;28;87617;-71
2021/01/31 11:00:28;;;;;;;28.67;17.50;;;5.40;48.80;;;;;;4940103;28;86859;-71
2021/01/31 11:02:54;;;;;;;21.97;13.60;;;5.40;48.60;;;;;;4939604;28;87621;-71
2021/01/31 11:05:21;;;;;;;22.63;11.90;;;5.30;48.80;;;;;;4940944;28;89615;-71
2021/01/31 11:07:48;;;;;;;25.13;12.87;;;5.30;48.80;;;;;;4939091;28;92069;-71
2021/01/31 11:10:17;;;;;;;13.87;8.00;;;5.30;48.40;;;;;;4939992;28;86995;-71
2021/01/31 11:12:43;;;;;;;10.93;7.70;;;5.20;47.60;;;;;;4939975;28;87133;-71
2021/01/31 11:15:11;;;;;;;14.20;8.17;;;5.10;47.00;;;;;;4942046;28;87885;-71
2021/01/31 11:17:37;;;;;;;12.13;8.40;;;5.10;46.10;;;;;;4940029;28;88018;-71
2021/01/31 11:20:04;;;;;;;14.30;8.83;;;5.00;47.80;;;;;;4941961;28;86983;-71
2021/01/31 11:22:30;;;;;;;15.60;9.20;;;4.90;46.40;;;;;;4942311;28;86316;-71
2021/01/31 11:24:56;;;;;;;17.30;7.83;;;4.70;46.90;;;;;;4938984;28;88011;-71
2021/01/31 11:27:22;;;;;;;11.07;6.97;;;4.60;47.50;;;;;;4956643;28;90397;-71
2021/01/31 11:29:48;;;;;;;11.07;6.77;;;4.50;48.40;;;;;;4939605;28;87781;-71
2021/01/31 11:32:14;;;;;;;12.73;7.33;;;4.50;49.00;;;;;;4940459;28;88080;-71
2021/01/31 11:34:40;;;;;;;12.10;6.27;;;4.50;48.90;;;;;;4939479;28;92060;-71
2021/01/31 11:37:05;;;;;;;13.33;8.10;;;4.50;47.70;;;;;;4940289;28;89838;-71
2021/01/31 11:39:31;;;;;;;9.60;6.00;;;4.50;48.30;;;;;;4957035;28;87391;-71
2021/01/31 11:41:58;;;;;;;10.50;6.40;;;4.40;47.80;;;;;;4957039;28;87604;-72
2021/01/31 11:44:23;;;;;;;14.37;8.67;;;4.40;47.80;;;;;;4942573;28;87453;-71
2021/01/31 11:46:49;;;;;;;24.30;13.30;;;4.30;49.30;;;;;;4939971;28;88484;-71
2021/01/31 11:49:15;;;;;;;16.50;9.17;;;4.20;47.70;;;;;;4956008;28;87301;-71
2021/01/31 11:51:42;;;;;;;18.20;9.10;;;4.00;49.00;;;;;;4939647;28;87106;-71
2021/01/31 11:54:08;;;;;;;17.27;10.53;;;4.00;49.20;;;;;;4939466;28;91633;-71
2021/01/31 11:56:36;;;;;;;17.07;9.90;;;3.90;49.40;;;;;;4940816;28;88780;-71
2021/01/31 11:59:03;;;;;;;17.23;10.40;;;3.80;50.60;;;;;;4939518;28;87146;-71
2021/01/31 12:01:28;;;;;;;20.93;11.63;;;3.90;49.30;;;;;;4939130;28;87147;-71
2021/01/31 12:03:54;;;;;;;19.83;10.90;;;3.80;49.30;;;;;;4938703;28;91354;-72
2021/01/31 12:06:20;;;;;;;19.53;11.53;;;3.70;49.40;;;;;;4940793;28;88018;-71
2021/01/31 12:08:46;;;;;;;18.53;11.57;;;3.60;50.10;;;;;;4954789;28;87074;-72
2021/01/31 12:11:12;;;;;;;19.50;11.10;;;3.50;50.30;;;;;;4939735;28;87876;-71
2021/01/31 12:13:38;;;;;;;23.67;11.80;;;3.40;51.80;;;;;;4941662;28;90872;-71
2021/01/31 12:16:05;;;;;;;17.07;10.10;;;3.40;50.40;;;;;;4941963;28;91218;-71
2021/01/31 12:18:31;;;;;;;17.60;10.73;;;3.20;50.80;;;;;;4958630;28;87974;-71
2021/01/31 12:20:57;;;;;;;19.20;11.37;;;3.10;50.20;;;;;;4943278;28;87089;-71
2021/01/31 12:23:23;;;;;;;15.97;9.43;;;3.00;51.00;;;;;;4943544;28;87900;-70
2021/01/31 12:25:49;;;;;;;16.97;9.83;;;2.90;51.20;;;;;;4942713;28;87896;-71
2021/01/31 12:28:16;;;;;;;20.13;9.83;;;2.50;51.10;;;;;;4959726;28;87467;-72
2021/01/31 12:30:42;;;;;;;20.47;11.27;;;2.50;52.70;;;;;;4942659;28;87316;-70
2021/01/31 12:33:09;;;;;;;16.97;9.97;;;2.50;53.40;;;;;;4943551;28;89006;-71
2021/01/31 12:35:36;;;;;;;15.30;8.13;;;2.50;53.00;;;;;;4943970;28;88339;-71
2021/01/31 12:38:02;;;;;;;16.43;9.00;;;2.60;52.20;;;;;;4942202;28;87094;-71
2021/01/31 12:40:29;;;;;;;14.60;8.17;;;2.60;52.10;;;;;;4944314;28;86930;-70
2021/01/31 12:42:55;;;;;;;14.43;7.90;;;2.60;52.30;;;;;;4941472;28;93062;-71
2021/01/31 12:45:22;;;;;;;14.47;8.13;;;2.60;52.00;;;;;;4944166;28;88789;-70
2021/01/31 12:47:48;;;;;;;13.57;8.13;;;2.60;52.60;;;;;;4943604;28;86779;-71
2021/01/31 12:50:17;;;;;;;16.50;9.10;;;2.60;52.80;;;;;;4942590;28;87190;-71
2021/01/31 12:52:43;;;;;;;13.77;7.97;;;2.70;51.60;;;;;;4942000;28;88207;-70
2021/01/31 12:55:12;;;;;;;13.63;8.40;;;2.70;52.00;;;;;;4942942;28;87378;-71
2021/01/31 12:57:38;;;;;;;14.80;9.17;;;2.60;51.50;;;;;;4942903;28;87495;-71
2021/01/31 13:00:06;;;;;;;17.17;9.50;;;2.50;51.90;;;;;;4943563;28;86716;-71